sensor_id;sensor_type;location;lat;lon;timestamp;temperature;humidity
7411;DHT22;3747;48.628;9.058;2022-08-21T00:00:14;13.30;99.90
7411;DHT22;3747;48.628;9.058;2022-08-21T00:02:46;13.30;99.90
7411;DHT22;3747;48.628;9.058;2022-08-21T00:05:13;13.20;99.90
7411;DHT22;3747;48.628;9.058;2022-08-21T00:07:40;13.10;99.90
7411;DHT22;3747;48.628;9.058;2022-08-21T00:10:07;13.20;99.90
7411;DHT22;3747;48.628;9.058;2022-08-21T00:12:34;13.20;99.90
7411;DHT22;3747;48.628;9.058;2022-08-21T00:15:08;13.00;99.90
7411;DHT22;3747;48.628;9.058;2022-08-21T00:17:35;13.10;99.90
7411;DHT22;3747;48.628;9.058;2022-08-21T00:20:04;13.00;99.90
7411;DHT22;3747;48.628;9.058;2022-08-21T00:22:31;13.00;99.90
7411;DHT22;3747;48.628;9.058;2022-08-21T00:24:57;12.90;99.90
7411;DHT22;3747;48.628;9.058;2022-08-21T00:27:24;13.00;99.90
7411;DHT22;3747;48.628;9.058;2022-08-21T00:29:51;13.10;99.90
7411;DHT22;3747;48.628;9.058;2022-08-21T00:32:21;13.20;99.90
7411;DHT22;3747;48.628;9.058;2022-08-21T00:34:48;13.30;99.90
7411;DHT22;3747;48.628;9.058;2022-08-21T00:37:15;13.40;99.90
7411;DHT22;3747;48.628;9.058;2022-08-21T00:39:42;13.40;99.90
7411;DHT22;3747;48.628;9.058;2022-08-21T00:42:09;13.40;99.90
7411;DHT22;3747;48.628;9.058;2022-08-21T00:44:35;13.40;99.90
7411;DHT22;3747;48.628;9.058;2022-08-21T00:47:02;13.40;99.90
7411;DHT22;3747;48.628;9.058;2022-08-21T00:49:30;13.40;99.90
7411;DHT22;3747;48.628;9.058;2022-08-21T00:51:59;13.30;99.90
7411;DHT22;3747;48.628;9.058;2022-08-21T00:54:28;13.20;99.90
7411;DHT22;3747;48.628;9.058;2022-08-21T00:56:59;13.30;99.90
7411;DHT22;3747;48.628;9.058;2022-08-21T00:59:28;13.30;99.90
7411;DHT22;3747;48.628;9.058;2022-08-21T01:01:57;13.30;99.90
7411;DHT22;3747;48.628;9.058;2022-08-21T01:04:24;13.20;99.90
7411;DHT22;3747;48.628;9.058;2022-08-21T01:06:52;13.10;99.90
7411;DHT22;3747;48.628;9.058;2022-08-21T01:09:20;13.10;99.90
7411;DHT22;3747;48.628;9.058;2022-08-21T01:11:47;13.10;99.90
7411;DHT22;3747;48.628;9.058;2022-08-21T01:14:14;13.10;99.90
7411;DHT22;3747;48.628;9.058;2022-08-21T01:16:46;13.10;99.90
7411;DHT22;3747;48.628;9.058;2022-08-21T01:19:13;13.00;99.90
7411;DHT22;3747;48.628;9.058;2022-08-21T01:21:43;13.00;99.90
7411;DHT22;3747;48.628;9.058;2022-08-21T01:24:10;12.80;99.90
7411;DHT22;3747;48.628;9.058;2022-08-21T01:26:37;12.80;99.90
7411;DHT22;3747;48.628;9.058;2022-08-21T01:29:07;12.80;99.90
7411;DHT22;3747;48.628;9.058;2022-08-21T01:31:36;13.10;99.90
7411;DHT22;3747;48.628;9.058;2022-08-21T01:34:03;13.10;99.90
7411;DHT22;3747;48.628;9.058;2022-08-21T01:36:31;13.00;99.90
7411;DHT22;3747;48.628;9.058;2022-08-21T01:38:59;13.20;99.90
7411;DHT22;3747;48.628;9.058;2022-08-21T01:41:26;13.10;99.90
7411;DHT22;3747;48.628;9.058;2022-08-21T01:43:53;13.00;99.90
7411;DHT22;3747;48.628;9.058;2022-08-21T01:46:19;13.20;99.90
7411;DHT22;3747;48.628;9.058;2022-08-21T01:48:46;13.30;99.90
7411;DHT22;3747;48.628;9.058;2022-08-21T01:51:13;13.20;99.90
7411;DHT22;3747;48.628;9.058;2022-08-21T01:53:39;13.00;99.90
7411;DHT22;3747;48.628;9.058;2022-08-21T01:56:10;12.90;99.90
7411;DHT22;3747;48.628;9.058;2022-08-21T01:58:37;13.00;99.90
7411;DHT22;3747;48.628;9.058;2022-08-21T02:01:04;12.90;99.90
7411;DHT22;3747;48.628;9.058;2022-08-21T02:03:31;12.70;99.90
7411;DHT22;3747;48.628;9.058;2022-08-21T02:05:58;12.60;99.90
7411;DHT22;3747;48.628;9.058;2022-08-21T02:08:25;12.50;99.90
7411;DHT22;3747;48.628;9.058;2022-08-21T02:10:51;12.40;99.90
7411;DHT22;3747;48.628;9.058;2022-08-21T02:13:20;12.50;99.90
7411;DHT22;3747;48.628;9.058;2022-08-21T02:15:46;12.40;99.90
7411;DHT22;3747;48.628;9.058;2022-08-21T02:18:13;12.40;99.90
7411;DHT22;3747;48.628;9.058;2022-08-21T02:20:42;12.40;99.90
7411;DHT22;3747;48.628;9.058;2022-08-21T02:23:11;12.30;99.90
7411;DHT22;3747;48.628;9.058;2022-08-21T02:25:38;12.30;99.90
7411;DHT22;3747;48.628;9.058;2022-08-21T02:28:09;12.40;99.90
7411;DHT22;3747;48.628;9.058;2022-08-21T02:30:39;12.40;99.90
7411;DHT22;3747;48.628;9.058;2022-08-21T02:33:06;12.30;99.90
7411;DHT22;3747;48.628;9.058;2022-08-21T02:35:35;12.20;99.90
7411;DHT22;3747;48.628;9.058;2022-08-21T02:38:05;12.00;99.90
7411;DHT22;3747;48.628;9.058;2022-08-21T02:40:34;11.80;99.90
7411;DHT22;3747;48.628;9.058;2022-08-21T02:43:03;11.70;99.90
7411;DHT22;3747;48.628;9.058;2022-08-21T02:45:30;11.60;99.90
7411;DHT22;3747;48.628;9.058;2022-08-21T02:48:02;11.50;99.90
7411;DHT22;3747;48.628;9.058;2022-08-21T02:50:31;11.30;99.90
7411;DHT22;3747;48.628;9.058;2022-08-21T02:52:58;11.10;99.90
7411;DHT22;3747;48.628;9.058;2022-08-21T02:55:28;11.00;99.90
7411;DHT22;3747;48.628;9.058;2022-08-21T02:57:56;11.00;99.90
7411;DHT22;3747;48.628;9.058;2022-08-21T03:00:26;10.90;99.90
7411;DHT22;3747;48.628;9.058;2022-08-21T03:02:54;10.80;99.90
7411;DHT22;3747;48.628;9.058;2022-08-21T03:05:23;10.70;99.90
7411;DHT22;3747;48.628;9.058;2022-08-21T03:07:50;10.70;99.90
7411;DHT22;3747;48.628;9.058;2022-08-21T03:10:19;11.00;99.90
7411;DHT22;3747;48.628;9.058;2022-08-21T03:12:47;11.10;99.90
7411;DHT22;3747;48.628;9.058;2022-08-21T03:15:17;11.20;99.90
7411;DHT22;3747;48.628;9.058;2022-08-21T03:17:45;11.10;99.90
7411;DHT22;3747;48.628;9.058;2022-08-21T03:20:15;10.90;99.90
7411;DHT22;3747;48.628;9.058;2022-08-21T03:22:43;10.70;99.90
7411;DHT22;3747;48.628;9.058;2022-08-21T03:25:10;10.50;99.90
7411;DHT22;3747;48.628;9.058;2022-08-21T03:27:37;10.40;99.90
7411;DHT22;3747;48.628;9.058;2022-08-21T03:30:05;10.40;99.90
7411;DHT22;3747;48.628;9.058;2022-08-21T03:32:32;10.60;99.90
7411;DHT22;3747;48.628;9.058;2022-08-21T03:34:59;10.80;99.90
7411;DHT22;3747;48.628;9.058;2022-08-21T03:37:27;10.90;99.90
7411;DHT22;3747;48.628;9.058;2022-08-21T03:39:55;10.90;99.90
7411;DHT22;3747;48.628;9.058;2022-08-21T03:42:22;10.70;99.90
7411;DHT22;3747;48.628;9.058;2022-08-21T03:44:48;10.50;99.90
7411;DHT22;3747;48.628;9.058;2022-08-21T03:47:15;10.30;99.90
7411;DHT22;3747;48.628;9.058;2022-08-21T03:49:42;10.10;99.90
7411;DHT22;3747;48.628;9.058;2022-08-21T03:52:08;10.00;99.90
7411;DHT22;3747;48.628;9.058;2022-08-21T03:54:35;9.90;99.90
7411;DHT22;3747;48.628;9.058;2022-08-21T03:57:03;9.90;99.90
7411;DHT22;3747;48.628;9.058;2022-08-21T03:59:30;9.90;99.90
7411;DHT22;3747;48.628;9.058;2022-08-21T04:01:58;9.90;99.90
7411;DHT22;3747;48.628;9.058;2022-08-21T04:04:27;10.00;99.90
7411;DHT22;3747;48.628;9.058;2022-08-21T04:06:54;10.10;99.90
7411;DHT22;3747;48.628;9.058;2022-08-21T04:09:21;10.30;99.90
7411;DHT22;3747;48.628;9.058;2022-08-21T04:11:48;10.40;99.90
7411;DHT22;3747;48.628;9.058;2022-08-21T04:14:16;10.40;99.90
7411;DHT22;3747;48.628;9.058;2022-08-21T04:16:43;10.20;99.90
7411;DHT22;3747;48.628;9.058;2022-08-21T04:19:11;10.00;99.90
7411;DHT22;3747;48.628;9.058;2022-08-21T04:21:39;9.90;99.90
7411;DHT22;3747;48.628;9.058;2022-08-21T04:24:08;9.80;99.90
7411;DHT22;3747;48.628;9.058;2022-08-21T04:26:35;9.80;99.90
7411;DHT22;3747;48.628;9.058;2022-08-21T04:29:03;9.80;99.90
7411;DHT22;3747;48.628;9.058;2022-08-21T04:31:31;9.70;99.90
7411;DHT22;3747;48.628;9.058;2022-08-21T04:33:59;9.70;99.90
7411;DHT22;3747;48.628;9.058;2022-08-21T04:36:26;9.70;99.90
7411;DHT22;3747;48.628;9.058;2022-08-21T04:38:52;9.80;99.90
7411;DHT22;3747;48.628;9.058;2022-08-21T04:41:19;10.00;99.90
7411;DHT22;3747;48.628;9.058;2022-08-21T04:43:45;9.90;99.90
7411;DHT22;3747;48.628;9.058;2022-08-21T04:46:12;9.80;99.90
7411;DHT22;3747;48.628;9.058;2022-08-21T04:48:40;9.80;99.90
7411;DHT22;3747;48.628;9.058;2022-08-21T04:51:12;9.70;99.90
7411;DHT22;3747;48.628;9.058;2022-08-21T04:53:41;9.90;99.90
7411;DHT22;3747;48.628;9.058;2022-08-21T04:56:14;10.10;99.90
7411;DHT22;3747;48.628;9.058;2022-08-21T04:58:41;10.40;99.90
7411;DHT22;3747;48.628;9.058;2022-08-21T05:01:17;10.50;99.90
7411;DHT22;3747;48.628;9.058;2022-08-21T05:03:47;10.60;99.90
7411;DHT22;3747;48.628;9.058;2022-08-21T05:06:15;10.60;99.90
7411;DHT22;3747;48.628;9.058;2022-08-21T05:08:44;10.70;99.90
7411;DHT22;3747;48.628;9.058;2022-08-21T05:11:12;10.70;99.90
7411;DHT22;3747;48.628;9.058;2022-08-21T05:13:38;10.80;99.90
7411;DHT22;3747;48.628;9.058;2022-08-21T05:16:07;10.80;99.90
7411;DHT22;3747;48.628;9.058;2022-08-21T05:18:33;10.90;99.90
7411;DHT22;3747;48.628;9.058;2022-08-21T05:21:02;11.10;99.90
7411;DHT22;3747;48.628;9.058;2022-08-21T05:23:28;11.30;99.90
7411;DHT22;3747;48.628;9.058;2022-08-21T05:25:55;11.30;99.90
7411;DHT22;3747;48.628;9.058;2022-08-21T05:28:22;11.40;99.90
7411;DHT22;3747;48.628;9.058;2022-08-21T05:30:49;11.50;99.90
7411;DHT22;3747;48.628;9.058;2022-08-21T05:33:16;11.40;99.90
7411;DHT22;3747;48.628;9.058;2022-08-21T05:35:42;11.40;99.90
7411;DHT22;3747;48.628;9.058;2022-08-21T05:38:11;11.40;99.90
7411;DHT22;3747;48.628;9.058;2022-08-21T05:40:37;11.50;99.90
7411;DHT22;3747;48.628;9.058;2022-08-21T05:43:04;11.60;99.90
7411;DHT22;3747;48.628;9.058;2022-08-21T05:45:32;11.70;99.90
7411;DHT22;3747;48.628;9.058;2022-08-21T05:48:05;11.90;99.90
7411;DHT22;3747;48.628;9.058;2022-08-21T05:50:32;12.00;99.90
7411;DHT22;3747;48.628;9.058;2022-08-21T05:52:59;12.10;99.90
7411;DHT22;3747;48.628;9.058;2022-08-21T05:55:27;12.20;99.90
7411;DHT22;3747;48.628;9.058;2022-08-21T05:57:54;12.40;99.90
7411;DHT22;3747;48.628;9.058;2022-08-21T06:00:21;12.70;99.90
7411;DHT22;3747;48.628;9.058;2022-08-21T06:02:48;12.90;99.90
7411;DHT22;3747;48.628;9.058;2022-08-21T06:05:15;13.10;99.90
7411;DHT22;3747;48.628;9.058;2022-08-21T06:07:42;13.30;99.90
7411;DHT22;3747;48.628;9.058;2022-08-21T06:10:09;13.40;99.90
7411;DHT22;3747;48.628;9.058;2022-08-21T06:12:38;13.70;99.90
7411;DHT22;3747;48.628;9.058;2022-08-21T06:15:05;14.00;99.90
7411;DHT22;3747;48.628;9.058;2022-08-21T06:17:32;14.30;99.90
7411;DHT22;3747;48.628;9.058;2022-08-21T06:19:59;14.50;99.90
7411;DHT22;3747;48.628;9.058;2022-08-21T06:22:25;14.70;99.90
7411;DHT22;3747;48.628;9.058;2022-08-21T06:24:53;14.90;99.90
7411;DHT22;3747;48.628;9.058;2022-08-21T06:27:19;14.70;99.90
7411;DHT22;3747;48.628;9.058;2022-08-21T06:29:47;14.70;99.90
7411;DHT22;3747;48.628;9.058;2022-08-21T06:32:14;14.80;99.90
7411;DHT22;3747;48.628;9.058;2022-08-21T06:34:41;15.00;99.90
7411;DHT22;3747;48.628;9.058;2022-08-21T06:37:08;15.60;99.90
7411;DHT22;3747;48.628;9.058;2022-08-21T06:39:35;16.20;99.90
7411;DHT22;3747;48.628;9.058;2022-08-21T06:42:02;16.90;99.90
7411;DHT22;3747;48.628;9.058;2022-08-21T06:44:29;17.70;99.90
7411;DHT22;3747;48.628;9.058;2022-08-21T06:46:58;17.80;99.90
7411;DHT22;3747;48.628;9.058;2022-08-21T06:49:25;18.40;99.90
7411;DHT22;3747;48.628;9.058;2022-08-21T06:51:51;18.60;99.90
7411;DHT22;3747;48.628;9.058;2022-08-21T06:54:18;19.60;99.90
7411;DHT22;3747;48.628;9.058;2022-08-21T06:56:45;20.30;99.90
7411;DHT22;3747;48.628;9.058;2022-08-21T06:59:11;20.60;99.90
7411;DHT22;3747;48.628;9.058;2022-08-21T07:01:38;21.60;99.90
7411;DHT22;3747;48.628;9.058;2022-08-21T07:04:07;21.30;99.90
7411;DHT22;3747;48.628;9.058;2022-08-21T07:06:33;20.20;99.90
7411;DHT22;3747;48.628;9.058;2022-08-21T07:09:00;20.80;99.90
7411;DHT22;3747;48.628;9.058;2022-08-21T07:11:28;20.90;99.90
7411;DHT22;3747;48.628;9.058;2022-08-21T07:13:55;20.70;99.90
7411;DHT22;3747;48.628;9.058;2022-08-21T07:16:22;20.60;99.90
7411;DHT22;3747;48.628;9.058;2022-08-21T07:18:49;20.50;99.90
7411;DHT22;3747;48.628;9.058;2022-08-21T07:21:17;20.70;99.90
7411;DHT22;3747;48.628;9.058;2022-08-21T07:23:46;21.00;99.90
7411;DHT22;3747;48.628;9.058;2022-08-21T07:26:14;20.60;99.90
7411;DHT22;3747;48.628;9.058;2022-08-21T07:28:41;20.60;99.90
7411;DHT22;3747;48.628;9.058;2022-08-21T07:31:09;21.00;99.90
7411;DHT22;3747;48.628;9.058;2022-08-21T07:33:39;20.70;99.90
7411;DHT22;3747;48.628;9.058;2022-08-21T07:36:06;20.90;99.90
7411;DHT22;3747;48.628;9.058;2022-08-21T07:38:34;20.90;99.90
7411;DHT22;3747;48.628;9.058;2022-08-21T07:41:04;21.00;99.90
7411;DHT22;3747;48.628;9.058;2022-08-21T07:43:33;21.10;99.90
7411;DHT22;3747;48.628;9.058;2022-08-21T07:45:59;22.00;99.90
7411;DHT22;3747;48.628;9.058;2022-08-21T07:48:26;22.30;99.90
7411;DHT22;3747;48.628;9.058;2022-08-21T07:50:53;22.80;99.90
7411;DHT22;3747;48.628;9.058;2022-08-21T07:53:20;22.50;99.90
7411;DHT22;3747;48.628;9.058;2022-08-21T07:55:48;22.80;99.90
7411;DHT22;3747;48.628;9.058;2022-08-21T07:58:15;23.10;99.90
7411;DHT22;3747;48.628;9.058;2022-08-21T08:00:42;23.10;99.90
7411;DHT22;3747;48.628;9.058;2022-08-21T08:03:12;23.70;99.90
7411;DHT22;3747;48.628;9.058;2022-08-21T08:05:39;24.10;99.90
7411;DHT22;3747;48.628;9.058;2022-08-21T08:08:06;23.60;99.90
7411;DHT22;3747;48.628;9.058;2022-08-21T08:10:33;23.70;99.90
7411;DHT22;3747;48.628;9.058;2022-08-21T08:13:01;23.70;99.90
7411;DHT22;3747;48.628;9.058;2022-08-21T08:15:28;24.30;99.90
7411;DHT22;3747;48.628;9.058;2022-08-21T08:17:55;24.40;99.90
7411;DHT22;3747;48.628;9.058;2022-08-21T08:20:23;24.40;99.90
7411;DHT22;3747;48.628;9.058;2022-08-21T08:22:52;25.00;99.90
7411;DHT22;3747;48.628;9.058;2022-08-21T08:25:20;24.90;99.90
7411;DHT22;3747;48.628;9.058;2022-08-21T08:27:48;25.30;99.90
7411;DHT22;3747;48.628;9.058;2022-08-21T08:30:17;26.00;99.90
7411;DHT22;3747;48.628;9.058;2022-08-21T08:32:45;26.60;99.90
7411;DHT22;3747;48.628;9.058;2022-08-21T08:35:12;26.10;99.90
7411;DHT22;3747;48.628;9.058;2022-08-21T08:37:39;26.60;99.90
7411;DHT22;3747;48.628;9.058;2022-08-21T08:40:10;26.70;99.90
7411;DHT22;3747;48.628;9.058;2022-08-21T08:42:37;27.10;99.90
7411;DHT22;3747;48.628;9.058;2022-08-21T08:45:07;27.30;99.90
7411;DHT22;3747;48.628;9.058;2022-08-21T08:47:38;27.80;99.90
7411;DHT22;3747;48.628;9.058;2022-08-21T08:50:08;26.30;99.80
7411;DHT22;3747;48.628;9.058;2022-08-21T08:52:41;27.10;98.90
7411;DHT22;3747;48.628;9.058;2022-08-21T08:55:14;27.20;99.90
7411;DHT22;3747;48.628;9.058;2022-08-21T08:57:45;27.90;98.80
7411;DHT22;3747;48.628;9.058;2022-08-21T09:00:14;28.50;97.30
7411;DHT22;3747;48.628;9.058;2022-08-21T09:02:44;28.30;97.30
7411;DHT22;3747;48.628;9.058;2022-08-21T09:05:19;27.70;97.30
7411;DHT22;3747;48.628;9.058;2022-08-21T09:07:55;27.90;96.60
7411;DHT22;3747;48.628;9.058;2022-08-21T09:10:30;28.00;97.90
7411;DHT22;3747;48.628;9.058;2022-08-21T09:13:05;27.70;96.70
7411;DHT22;3747;48.628;9.058;2022-08-21T09:15:42;28.10;95.60
7411;DHT22;3747;48.628;9.058;2022-08-21T09:18:24;28.00;96.10
7411;DHT22;3747;48.628;9.058;2022-08-21T09:21:06;28.30;96.70
7411;DHT22;3747;48.628;9.058;2022-08-21T09:23:43;28.40;94.70
7411;DHT22;3747;48.628;9.058;2022-08-21T09:26:14;27.90;94.90
7411;DHT22;3747;48.628;9.058;2022-08-21T09:28:42;28.20;95.10
7411;DHT22;3747;48.628;9.058;2022-08-21T09:31:23;28.40;94.70
7411;DHT22;3747;48.628;9.058;2022-08-21T09:33:57;28.60;92.00
7411;DHT22;3747;48.628;9.058;2022-08-21T09:39:10;27.80;93.70
7411;DHT22;3747;48.628;9.058;2022-08-21T09:41:38;26.90;94.00
7411;DHT22;3747;48.628;9.058;2022-08-21T09:44:07;26.80;95.40
7411;DHT22;3747;48.628;9.058;2022-08-21T09:46:34;26.30;94.60
7411;DHT22;3747;48.628;9.058;2022-08-21T09:49:04;26.20;94.20
7411;DHT22;3747;48.628;9.058;2022-08-21T09:51:32;26.30;93.60
7411;DHT22;3747;48.628;9.058;2022-08-21T09:54:12;26.40;93.00
7411;DHT22;3747;48.628;9.058;2022-08-21T09:56:52;27.10;94.50
7411;DHT22;3747;48.628;9.058;2022-08-21T09:59:37;27.30;94.00
7411;DHT22;3747;48.628;9.058;2022-08-21T10:02:25;27.10;93.40
7411;DHT22;3747;48.628;9.058;2022-08-21T10:04:56;27.80;93.40
7411;DHT22;3747;48.628;9.058;2022-08-21T10:07:25;28.30;92.50
7411;DHT22;3747;48.628;9.058;2022-08-21T10:10:00;29.00;91.00
7411;DHT22;3747;48.628;9.058;2022-08-21T10:12:33;28.90;90.40
7411;DHT22;3747;48.628;9.058;2022-08-21T10:15:08;29.50;91.10
7411;DHT22;3747;48.628;9.058;2022-08-21T10:17:44;29.30;87.80
7411;DHT22;3747;48.628;9.058;2022-08-21T10:20:20;29.60;87.70
7411;DHT22;3747;48.628;9.058;2022-08-21T10:22:59;30.10;90.30
7411;DHT22;3747;48.628;9.058;2022-08-21T10:25:32;29.90;89.10
7411;DHT22;3747;48.628;9.058;2022-08-21T10:28:06;29.70;87.90
7411;DHT22;3747;48.628;9.058;2022-08-21T10:30:39;30.30;85.30
7411;DHT22;3747;48.628;9.058;2022-08-21T10:33:20;30.60;82.80
7411;DHT22;3747;48.628;9.058;2022-08-21T10:35:59;30.50;82.10
7411;DHT22;3747;48.628;9.058;2022-08-21T10:38:57;30.10;82.60
7411;DHT22;3747;48.628;9.058;2022-08-21T10:41:38;30.50;83.00
7411;DHT22;3747;48.628;9.058;2022-08-21T10:44:19;31.10;80.60
7411;DHT22;3747;48.628;9.058;2022-08-21T10:46:53;30.90;80.70
7411;DHT22;3747;48.628;9.058;2022-08-21T10:49:28;31.10;79.10
7411;DHT22;3747;48.628;9.058;2022-08-21T10:52:16;31.20;78.90
7411;DHT22;3747;48.628;9.058;2022-08-21T10:54:50;30.80;78.20
7411;DHT22;3747;48.628;9.058;2022-08-21T10:57:26;30.30;82.20
7411;DHT22;3747;48.628;9.058;2022-08-21T10:59:57;30.70;80.50
7411;DHT22;3747;48.628;9.058;2022-08-21T11:02:29;31.00;77.50
7411;DHT22;3747;48.628;9.058;2022-08-21T11:05:01;31.20;78.80
7411;DHT22;3747;48.628;9.058;2022-08-21T11:07:33;31.00;76.40
7411;DHT22;3747;48.628;9.058;2022-08-21T11:10:08;31.20;75.10
7411;DHT22;3747;48.628;9.058;2022-08-21T11:12:41;31.10;78.20
7411;DHT22;3747;48.628;9.058;2022-08-21T11:15:19;31.30;74.10
7411;DHT22;3747;48.628;9.058;2022-08-21T11:17:54;32.10;74.50
7411;DHT22;3747;48.628;9.058;2022-08-21T11:20:29;32.70;75.00
7411;DHT22;3747;48.628;9.058;2022-08-21T11:23:04;32.60;72.00
7411;DHT22;3747;48.628;9.058;2022-08-21T11:25:36;32.70;69.60
7411;DHT22;3747;48.628;9.058;2022-08-21T11:28:09;32.40;70.90
7411;DHT22;3747;48.628;9.058;2022-08-21T11:30:46;32.40;73.40
7411;DHT22;3747;48.628;9.058;2022-08-21T11:33:27;32.00;73.70
7411;DHT22;3747;48.628;9.058;2022-08-21T11:36:00;32.00;70.80
7411;DHT22;3747;48.628;9.058;2022-08-21T11:38:35;32.00;72.60
7411;DHT22;3747;48.628;9.058;2022-08-21T11:41:23;30.70;72.20
7411;DHT22;3747;48.628;9.058;2022-08-21T11:43:59;30.90;75.00
7411;DHT22;3747;48.628;9.058;2022-08-21T11:46:34;31.10;73.70
7411;DHT22;3747;48.628;9.058;2022-08-21T11:49:12;30.30;70.60
7411;DHT22;3747;48.628;9.058;2022-08-21T11:51:47;28.70;75.00
7411;DHT22;3747;48.628;9.058;2022-08-21T11:54:23;27.10;77.80
7411;DHT22;3747;48.628;9.058;2022-08-21T11:56:55;26.60;77.10
7411;DHT22;3747;48.628;9.058;2022-08-21T11:59:28;26.00;80.20
7411;DHT22;3747;48.628;9.058;2022-08-21T12:01:59;26.20;81.60
7411;DHT22;3747;48.628;9.058;2022-08-21T12:04:29;26.60;79.30
7411;DHT22;3747;48.628;9.058;2022-08-21T12:07:10;25.50;79.80
7411;DHT22;3747;48.628;9.058;2022-08-21T12:09:39;25.60;80.30
7411;DHT22;3747;48.628;9.058;2022-08-21T12:12:22;25.30;81.80
7411;DHT22;3747;48.628;9.058;2022-08-21T12:14:51;25.10;82.70
7411;DHT22;3747;48.628;9.058;2022-08-21T12:17:35;26.20;84.50
7411;DHT22;3747;48.628;9.058;2022-08-21T12:20:17;28.40;80.30
7411;DHT22;3747;48.628;9.058;2022-08-21T12:22:51;30.40;77.00
7411;DHT22;3747;48.628;9.058;2022-08-21T12:25:21;31.20;72.30
7411;DHT22;3747;48.628;9.058;2022-08-21T12:27:50;31.90;70.40
7411;DHT22;3747;48.628;9.058;2022-08-21T12:30:32;32.60;70.00
7411;DHT22;3747;48.628;9.058;2022-08-21T12:33:02;32.70;67.60
7411;DHT22;3747;48.628;9.058;2022-08-21T12:35:33;31.90;71.30
7411;DHT22;3747;48.628;9.058;2022-08-21T12:38:08;33.40;68.70
7411;DHT22;3747;48.628;9.058;2022-08-21T12:40:43;33.70;67.50
7411;DHT22;3747;48.628;9.058;2022-08-21T12:43:14;33.60;64.20
7411;DHT22;3747;48.628;9.058;2022-08-21T12:45:44;33.20;64.70
7411;DHT22;3747;48.628;9.058;2022-08-21T12:48:16;31.40;66.40
7411;DHT22;3747;48.628;9.058;2022-08-21T12:50:50;29.60;69.10
7411;DHT22;3747;48.628;9.058;2022-08-21T12:53:25;28.10;71.40
7411;DHT22;3747;48.628;9.058;2022-08-21T12:55:55;27.60;72.40
7411;DHT22;3747;48.628;9.058;2022-08-21T12:58:27;27.40;73.20
7411;DHT22;3747;48.628;9.058;2022-08-21T13:00:56;27.40;72.80
7411;DHT22;3747;48.628;9.058;2022-08-21T13:03:26;28.40;74.30
7411;DHT22;3747;48.628;9.058;2022-08-21T13:05:53;28.50;71.10
7411;DHT22;3747;48.628;9.058;2022-08-21T13:08:21;27.60;76.50
7411;DHT22;3747;48.628;9.058;2022-08-21T13:11:00;26.70;74.60
7411;DHT22;3747;48.628;9.058;2022-08-21T13:13:28;26.30;77.40
7411;DHT22;3747;48.628;9.058;2022-08-21T13:16:00;27.10;83.50
7411;DHT22;3747;48.628;9.058;2022-08-21T13:18:30;28.00;76.80
7411;DHT22;3747;48.628;9.058;2022-08-21T13:21:06;29.40;73.90
7411;DHT22;3747;48.628;9.058;2022-08-21T13:23:34;30.70;68.50
7411;DHT22;3747;48.628;9.058;2022-08-21T13:26:12;31.70;69.50
7411;DHT22;3747;48.628;9.058;2022-08-21T13:28:39;32.50;70.40
7411;DHT22;3747;48.628;9.058;2022-08-21T13:31:08;32.00;66.00
7411;DHT22;3747;48.628;9.058;2022-08-21T13:33:37;29.90;70.00
7411;DHT22;3747;48.628;9.058;2022-08-21T13:36:09;29.20;70.70
7411;DHT22;3747;48.628;9.058;2022-08-21T13:38:38;29.50;70.60
7411;DHT22;3747;48.628;9.058;2022-08-21T13:41:20;31.00;68.50
7411;DHT22;3747;48.628;9.058;2022-08-21T13:43:56;31.90;66.70
7411;DHT22;3747;48.628;9.058;2022-08-21T13:46:24;32.60;67.00
7411;DHT22;3747;48.628;9.058;2022-08-21T13:48:51;33.50;65.70
7411;DHT22;3747;48.628;9.058;2022-08-21T13:51:19;34.30;63.90
7411;DHT22;3747;48.628;9.058;2022-08-21T13:53:49;34.40;63.10
7411;DHT22;3747;48.628;9.058;2022-08-21T13:56:27;34.50;64.10
7411;DHT22;3747;48.628;9.058;2022-08-21T13:58:56;34.50;59.30
7411;DHT22;3747;48.628;9.058;2022-08-21T14:01:27;34.20;62.40
7411;DHT22;3747;48.628;9.058;2022-08-21T14:03:58;34.30;60.70
7411;DHT22;3747;48.628;9.058;2022-08-21T14:06:27;33.50;62.00
7411;DHT22;3747;48.628;9.058;2022-08-21T14:08:58;33.50;61.90
7411;DHT22;3747;48.628;9.058;2022-08-21T14:11:28;33.40;61.50
7411;DHT22;3747;48.628;9.058;2022-08-21T14:14:01;31.70;62.80
7411;DHT22;3747;48.628;9.058;2022-08-21T14:16:41;30.90;62.10
7411;DHT22;3747;48.628;9.058;2022-08-21T14:19:10;30.50;66.30
7411;DHT22;3747;48.628;9.058;2022-08-21T14:21:40;29.80;67.20
7411;DHT22;3747;48.628;9.058;2022-08-21T14:24:10;29.00;69.20
7411;DHT22;3747;48.628;9.058;2022-08-21T14:26:46;29.30;68.60
7411;DHT22;3747;48.628;9.058;2022-08-21T14:29:16;30.00;67.80
7411;DHT22;3747;48.628;9.058;2022-08-21T14:31:49;29.40;66.00
7411;DHT22;3747;48.628;9.058;2022-08-21T14:34:16;29.00;67.80
7411;DHT22;3747;48.628;9.058;2022-08-21T14:36:43;28.80;69.90
7411;DHT22;3747;48.628;9.058;2022-08-21T14:39:10;28.50;70.10
7411;DHT22;3747;48.628;9.058;2022-08-21T14:41:37;28.80;71.20
7411;DHT22;3747;48.628;9.058;2022-08-21T14:44:06;29.80;68.40
7411;DHT22;3747;48.628;9.058;2022-08-21T14:46:33;31.20;68.00
7411;DHT22;3747;48.628;9.058;2022-08-21T14:49:00;32.10;64.50
7411;DHT22;3747;48.628;9.058;2022-08-21T14:51:27;32.50;61.90
7411;DHT22;3747;48.628;9.058;2022-08-21T14:53:54;32.80;61.50
7411;DHT22;3747;48.628;9.058;2022-08-21T14:56:21;32.40;62.10
7411;DHT22;3747;48.628;9.058;2022-08-21T14:58:49;32.00;63.00
7411;DHT22;3747;48.628;9.058;2022-08-21T15:01:20;31.70;61.70
7411;DHT22;3747;48.628;9.058;2022-08-21T15:03:48;31.60;62.70
7411;DHT22;3747;48.628;9.058;2022-08-21T15:06:16;31.60;62.70
7411;DHT22;3747;48.628;9.058;2022-08-21T15:08:43;31.80;62.90
7411;DHT22;3747;48.628;9.058;2022-08-21T15:11:12;32.60;61.80
7411;DHT22;3747;48.628;9.058;2022-08-21T15:13:42;32.60;61.40
7411;DHT22;3747;48.628;9.058;2022-08-21T15:16:10;32.00;61.20
7411;DHT22;3747;48.628;9.058;2022-08-21T15:18:39;32.20;62.60
7411;DHT22;3747;48.628;9.058;2022-08-21T15:21:07;33.10;59.90
7411;DHT22;3747;48.628;9.058;2022-08-21T15:23:34;33.20;63.30
7411;DHT22;3747;48.628;9.058;2022-08-21T15:26:01;33.60;59.80
7411;DHT22;3747;48.628;9.058;2022-08-21T15:28:27;34.20;58.90
7411;DHT22;3747;48.628;9.058;2022-08-21T15:30:54;33.90;57.60
7411;DHT22;3747;48.628;9.058;2022-08-21T15:33:21;33.30;58.00
7411;DHT22;3747;48.628;9.058;2022-08-21T15:35:50;33.40;57.30
7411;DHT22;3747;48.628;9.058;2022-08-21T15:38:16;33.50;57.20
7411;DHT22;3747;48.628;9.058;2022-08-21T15:40:43;33.60;57.40
7411;DHT22;3747;48.628;9.058;2022-08-21T15:43:24;33.90;57.10
7411;DHT22;3747;48.628;9.058;2022-08-21T15:45:52;33.50;56.80
7411;DHT22;3747;48.628;9.058;2022-08-21T15:48:18;33.10;57.80
7411;DHT22;3747;48.628;9.058;2022-08-21T15:50:46;33.10;58.00
7411;DHT22;3747;48.628;9.058;2022-08-21T15:53:14;33.30;56.90
7411;DHT22;3747;48.628;9.058;2022-08-21T15:55:41;33.10;56.10
7411;DHT22;3747;48.628;9.058;2022-08-21T15:58:12;33.50;56.80
7411;DHT22;3747;48.628;9.058;2022-08-21T16:00:40;33.80;56.80
7411;DHT22;3747;48.628;9.058;2022-08-21T16:03:11;33.60;57.20
7411;DHT22;3747;48.628;9.058;2022-08-21T16:05:40;34.00;56.20
7411;DHT22;3747;48.628;9.058;2022-08-21T16:08:07;33.80;56.30
7411;DHT22;3747;48.628;9.058;2022-08-21T16:10:37;33.70;56.10
7411;DHT22;3747;48.628;9.058;2022-08-21T16:13:09;34.10;56.70
7411;DHT22;3747;48.628;9.058;2022-08-21T16:15:37;33.50;58.20
7411;DHT22;3747;48.628;9.058;2022-08-21T16:18:05;33.60;56.80
7411;DHT22;3747;48.628;9.058;2022-08-21T16:20:32;34.40;55.80